Time;durP1;ratioP1;P1;durP2;ratioP2;P2;SDS_P1;SDS_P2;PMS_P1;PMS_P2;Temp;Humidity;BMP_temperature;BMP_pressure;BME280_temperature;BME280_humidity;BME280_pressure;Samples;Min_cycle;Max_cycle;Signal;HPM_P1;HPM_P2
2023/12/27 00:00:29;;;;;;;12.88;2.10;;;;;;;;;;5120839;28;20039;-64
2023/12/27 00:02:55;;;;;;;10.95;2.22;;;;;;;;;;5083727;28;20039;-64
2023/12/27 00:05:22;;;;;;;11.02;1.75;;;;;;;;;;5111888;27;20055;-64
2023/12/27 00:07:48;;;;;;;8.10;2.00;;;;;;;;;;5113203;28;20031;-64
2023/12/27 00:10:14;;;;;;;9.25;1.90;;;;;;;;;;5075727;28;20130;-64
2023/12/27 00:12:40;;;;;;;10.23;2.00;;;;;;;;;;5095591;28;20050;-64
2023/12/27 00:15:07;;;;;;;6.50;1.77;;;;;;;;;;5119102;27;20405;-64
2023/12/27 00:17:34;;;;;;;7.22;2.08;;;;;;;;;;5102201;27;20169;-64
2023/12/27 00:20:00;;;;;;;7.85;1.60;;;;;;;;;;5104532;27;20052;-64
2023/12/27 00:22:26;;;;;;;8.25;1.85;;;;;;;;;;5116810;27;20057;-64
2023/12/27 00:24:52;;;;;;;14.50;3.90;;;;;;;;;;5120312;27;21676;-64
2023/12/27 00:27:18;;;;;;;7.90;1.88;;;;;;;;;;5107225;27;20054;-64
2023/12/27 00:29:45;;;;;;;13.85;2.88;;;;;;;;;;5107890;27;20047;-64
2023/12/27 00:32:11;;;;;;;11.10;2.00;;;;;;;;;;5124538;27;20039;-64
2023/12/27 00:34:38;;;;;;;13.70;2.13;;;;;;;;;;5104970;27;20044;-64
2023/12/27 00:37:04;;;;;;;12.65;3.58;;;;;;;;;;5104866;27;20529;-64
2023/12/27 00:39:31;;;;;;;13.45;3.25;;;;;;;;;;5087032;27;20044;-64
2023/12/27 00:41:57;;;;;;;11.52;2.35;;;;;;;;;;5128838;27;20039;-64
2023/12/27 00:44:24;;;;;;;12.60;2.90;;;;;;;;;;5126488;27;20031;-64
2023/12/27 00:46:50;;;;;;;10.00;2.20;;;;;;;;;;5124741;27;20076;-64
2023/12/27 00:49:16;;;;;;;10.63;2.35;;;;;;;;;;5106493;28;20040;-64
2023/12/27 00:51:44;;;;;;;14.60;2.28;;;;;;;;;;5126714;27;20084;-64
2023/12/27 00:54:10;;;;;;;6.57;1.80;;;;;;;;;;5105943;27;20043;-64
2023/12/27 00:56:36;;;;;;;11.68;2.25;;;;;;;;;;5125705;27;20040;-64
2023/12/27 00:59:02;;;;;;;17.23;3.05;;;;;;;;;;5126431;27;20117;-64
2023/12/27 01:01:30;;;;;;;9.05;2.13;;;;;;;;;;5102977;27;20478;-64
2023/12/27 01:03:56;;;;;;;14.25;2.92;;;;;;;;;;5104406;28;20036;-64
2023/12/27 01:06:23;;;;;;;13.02;2.33;;;;;;;;;;5120582;27;20061;-64
2023/12/27 01:08:49;;;;;;;12.32;2.33;;;;;;;;;;5100993;27;20075;-64
2023/12/27 01:11:15;;;;;;;13.57;3.30;;;;;;;;;;5103845;27;20031;-64
2023/12/27 01:13:42;;;;;;;14.55;2.60;;;;;;;;;;5100372;28;20047;-64
2023/12/27 01:16:08;;;;;;;10.63;2.58;;;;;;;;;;5098902;27;20497;-64
2023/12/27 01:18:34;;;;;;;17.15;3.25;;;;;;;;;;5100293;27;20051;-64
2023/12/27 01:21:01;;;;;;;14.60;2.95;;;;;;;;;;5102320;27;20059;-64
2023/12/27 01:23:27;;;;;;;10.90;2.67;;;;;;;;;;5101225;28;20047;-64
2023/12/27 01:25:53;;;;;;;11.73;3.90;;;;;;;;;;5104871;27;20504;-64
2023/12/27 01:28:19;;;;;;;15.32;2.90;;;;;;;;;;5121898;27;20047;-64
2023/12/27 01:30:45;;;;;;;12.70;2.67;;;;;;;;;;5087039;27;20048;-64
2023/12/27 01:33:12;;;;;;;12.40;3.30;;;;;;;;;;5103185;28;20043;-64
2023/12/27 01:35:38;;;;;;;14.02;3.58;;;;;;;;;;5088080;27;20075;-64
2023/12/27 01:38:04;;;;;;;17.25;3.13;;;;;;;;;;5104795;27;20474;-64
2023/12/27 01:40:30;;;;;;;14.10;3.35;;;;;;;;;;5105373;27;20062;-64
2023/12/27 01:42:56;;;;;;;17.98;3.38;;;;;;;;;;5106563;27;20482;-64
2023/12/27 01:45:23;;;;;;;11.30;3.10;;;;;;;;;;5104290;27;20274;-64
2023/12/27 01:47:49;;;;;;;14.07;3.17;;;;;;;;;;5122636;27;20063;-64
2023/12/27 01:50:19;;;;;;;18.42;3.05;;;;;;;;;;5102841;27;20157;-64
2023/12/27 01:52:45;;;;;;;10.98;2.80;;;;;;;;;;5106148;27;20043;-64
2023/12/27 01:55:11;;;;;;;16.70;3.00;;;;;;;;;;5116084;27;20077;-64
2023/12/27 01:57:38;;;;;;;12.15;3.25;;;;;;;;;;5102405;27;20050;-64
2023/12/27 02:00:05;;;;;;;17.40;3.17;;;;;;;;;;5101763;27;20059;-64
2023/12/27 02:02:32;;;;;;;11.90;3.05;;;;;;;;;;5101509;28;20126;-64
2023/12/27 02:04:58;;;;;;;12.23;2.20;;;;;;;;;;5108626;27;20403;-64
2023/12/27 02:07:24;;;;;;;11.63;2.20;;;;;;;;;;5085717;27;20122;-64
2023/12/27 02:09:50;;;;;;;13.27;3.13;;;;;;;;;;5117247;27;20031;-64
2023/12/27 02:12:23;;;;;;;11.38;2.60;;;;;;;;;;5120483;27;20088;-64
2023/12/27 02:14:49;;;;;;;8.40;2.67;;;;;;;;;;5096050;27;20062;-64
2023/12/27 02:17:16;;;;;;;11.27;2.65;;;;;;;;;;5121425;27;20391;-64
2023/12/27 02:19:42;;;;;;;10.40;2.40;;;;;;;;;;5097942;28;20039;-64
2023/12/27 02:22:10;;;;;;;14.07;3.05;;;;;;;;;;5097387;27;20654;-64
2023/12/27 02:24:37;;;;;;;9.85;2.45;;;;;;;;;;5097320;27;20433;-64
2023/12/27 02:27:04;;;;;;;11.63;2.70;;;;;;;;;;5114766;27;20081;-64
2023/12/27 02:29:30;;;;;;;13.20;2.55;;;;;;;;;;5100999;27;20051;-64
2023/12/27 02:31:56;;;;;;;14.02;3.15;;;;;;;;;;5100045;27;20428;-64
2023/12/27 02:34:22;;;;;;;23.80;3.30;;;;;;;;;;5098323;27;20058;-64
2023/12/27 02:36:48;;;;;;;13.95;4.88;;;;;;;;;;5097721;27;20133;-64
2023/12/27 02:39:14;;;;;;;10.85;2.47;;;;;;;;;;5121912;27;20043;-64
2023/12/27 02:41:41;;;;;;;13.43;2.65;;;;;;;;;;5121343;27;20483;-64
2023/12/27 02:44:07;;;;;;;10.13;2.33;;;;;;;;;;5121573;27;20132;-64
2023/12/27 02:46:34;;;;;;;9.15;2.47;;;;;;;;;;5100114;27;20043;-64
2023/12/27 02:49:00;;;;;;;14.63;2.90;;;;;;;;;;5102329;27;20383;-64
2023/12/27 02:51:26;;;;;;;16.58;3.00;;;;;;;;;;5097020;28;20036;-64
2023/12/27 02:53:53;;;;;;;15.88;3.45;;;;;;;;;;5123420;27;20039;-64
2023/12/27 02:56:19;;;;;;;10.60;3.10;;;;;;;;;;5123784;27;20593;-64
2023/12/27 02:58:45;;;;;;;20.33;3.20;;;;;;;;;;5119761;27;20144;-64
2023/12/27 03:01:12;;;;;;;13.50;3.25;;;;;;;;;;5102337;27;20130;-64
2023/12/27 03:03:38;;;;;;;12.50;3.85;;;;;;;;;;5120906;27;20043;-64
2023/12/27 03:06:05;;;;;;;18.13;3.65;;;;;;;;;;5104130;27;20043;-64
2023/12/27 03:08:33;;;;;;;14.50;3.55;;;;;;;;;;5101312;27;20039;-64
2023/12/27 03:10:59;;;;;;;13.70;3.67;;;;;;;;;;5118879;27;20078;-64
2023/12/27 03:13:25;;;;;;;20.77;3.38;;;;;;;;;;5119193;27;20042;-64
2023/12/27 03:15:51;;;;;;;17.63;3.70;;;;;;;;;;5117359;27;20433;-64
2023/12/27 03:18:17;;;;;;;18.52;3.20;;;;;;;;;;5100267;28;20092;-64
2023/12/27 03:20:43;;;;;;;13.05;3.47;;;;;;;;;;5122041;27;20655;-64
2023/12/27 03:23:10;;;;;;;25.65;4.47;;;;;;;;;;5122811;27;20039;-64
2023/12/27 03:25:36;;;;;;;18.48;4.22;;;;;;;;;;5117611;27;20093;-64
2023/12/27 03:28:02;;;;;;;13.18;4.15;;;;;;;;;;5117986;27;20054;-64
2023/12/27 03:30:29;;;;;;;10.90;3.92;;;;;;;;;;5104327;27;20139;-64
2023/12/27 03:32:55;;;;;;;11.77;4.35;;;;;;;;;;5121569;27;20050;-64
2023/12/27 03:35:21;;;;;;;18.67;4.07;;;;;;;;;;5101003;28;20122;-64
2023/12/27 03:37:47;;;;;;;17.20;4.35;;;;;;;;;;5097703;28;20035;-64
2023/12/27 03:40:13;;;;;;;20.55;4.10;;;;;;;;;;5097097;28;20474;-64
2023/12/27 03:42:40;;;;;;;16.48;3.60;;;;;;;;;;5082977;28;20031;-64
2023/12/27 03:45:06;;;;;;;16.33;3.97;;;;;;;;;;5101769;28;20101;-64
2023/12/27 03:47:32;;;;;;;12.63;3.75;;;;;;;;;;5103924;28;20095;-64
2023/12/27 03:49:58;;;;;;;14.00;3.90;;;;;;;;;;5122592;28;20058;-64
2023/12/27 03:52:25;;;;;;;17.15;4.13;;;;;;;;;;5103756;28;20084;-64
2023/12/27 03:54:52;;;;;;;13.73;3.47;;;;;;;;;;5120034;28;20079;-64
2023/12/27 03:57:18;;;;;;;12.15;3.47;;;;;;;;;;5118646;28;20035;-64
2023/12/27 03:59:44;;;;;;;13.15;3.40;;;;;;;;;;5100341;28;20047;-64
2023/12/27 04:02:10;;;;;;;13.38;2.78;;;;;;;;;;5097489;28;20043;-64
2023/12/27 04:04:39;;;;;;;8.95;3.53;;;;;;;;;;5099913;28;20188;-64
2023/12/27 04:07:05;;;;;;;10.10;3.03;;;;;;;;;;5121664;28;20347;-64
2023/12/27 04:09:31;;;;;;;11.77;3.95;;;;;;;;;;5100323;28;20050;-64
2023/12/27 04:11:57;;;;;;;19.95;3.83;;;;;;;;;;5115074;28;20036;-64
2023/12/27 04:14:23;;;;;;;16.02;4.80;;;;;;;;;;5116248;28;20035;-64
2023/12/27 04:16:50;;;;;;;19.90;4.43;;;;;;;;;;5099489;28;20492;-64
2023/12/27 04:19:16;;;;;;;16.20;4.25;;;;;;;;;;5114722;28;20050;-64
2023/12/27 04:21:42;;;;;;;17.48;4.10;;;;;;;;;;5098047;28;20499;-64
2023/12/27 04:24:09;;;;;;;22.95;4.95;;;;;;;;;;5119298;28;20043;-65
2023/12/27 04:26:38;;;;;;;20.17;4.90;;;;;;;;;;5100905;28;20055;-64
2023/12/27 04:29:04;;;;;;;21.48;4.88;;;;;;;;;;5118084;28;20225;-64
2023/12/27 04:31:30;;;;;;;17.60;4.03;;;;;;;;;;5100815;28;20359;-64
2023/12/27 04:33:56;;;;;;;19.80;4.43;;;;;;;;;;5103019;28;20054;-64
2023/12/27 04:36:22;;;;;;;13.20;3.63;;;;;;;;;;5097848;28;20043;-64
2023/12/27 04:38:48;;;;;;;20.23;4.03;;;;;;;;;;5117688;28;20728;-64
2023/12/27 04:41:15;;;;;;;14.75;3.83;;;;;;;;;;5100502;28;20111;-64
2023/12/27 04:43:41;;;;;;;14.10;4.05;;;;;;;;;;5118841;28;20036;-64
2023/12/27 04:46:07;;;;;;;20.83;4.05;;;;;;;;;;5115647;28;20118;-64
2023/12/27 04:48:34;;;;;;;12.40;3.42;;;;;;;;;;5116800;28;20043;-64
2023/12/27 04:51:00;;;;;;;15.40;3.42;;;;;;;;;;5118998;28;20039;-64
2023/12/27 04:53:26;;;;;;;20.35;4.68;;;;;;;;;;5095258;28;20495;-64
2023/12/27 04:55:52;;;;;;;20.83;4.68;;;;;;;;;;5097716;28;20185;-64
2023/12/27 04:58:18;;;;;;;16.40;4.75;;;;;;;;;;5098418;28;20036;-64
2023/12/27 05:00:45;;;;;;;12.55;5.47;;;;;;;;;;5098702;27;20058;-64
2023/12/27 05:03:11;;;;;;;17.45;4.10;;;;;;;;;;5121224;27;20494;-64
2023/12/27 05:05:37;;;;;;;19.42;4.60;;;;;;;;;;5103126;27;20054;-64
2023/12/27 05:08:03;;;;;;;20.73;4.10;;;;;;;;;;5101333;27;20043;-64
2023/12/27 05:10:30;;;;;;;14.73;3.60;;;;;;;;;;5123360;27;20406;-64
2023/12/27 05:12:56;;;;;;;14.93;4.30;;;;;;;;;;5106520;27;20078;-64
2023/12/27 05:15:22;;;;;;;16.00;3.50;;;;;;;;;;5120546;27;20599;-64
2023/12/27 05:17:48;;;;;;;22.30;4.70;;;;;;;;;;5122941;27;20058;-64
2023/12/27 05:20:14;;;;;;;14.35;3.58;;;;;;;;;;5102274;27;20054;-64
2023/12/27 05:22:40;;;;;;;18.88;4.30;;;;;;;;;;5120355;27;20069;-64
2023/12/27 05:25:07;;;;;;;21.63;5.03;;;;;;;;;;5119531;27;20039;-64
2023/12/27 05:27:34;;;;;;;12.27;4.43;;;;;;;;;;5120849;27;20365;-64
2023/12/27 05:30:00;;;;;;;12.98;3.53;;;;;;;;;;5102536;27;20047;-64
2023/12/27 05:32:26;;;;;;;15.65;4.80;;;;;;;;;;5121709;27;20051;-64
2023/12/27 05:34:53;;;;;;;19.95;4.57;;;;;;;;;;5120345;27;20122;-65
2023/12/27 05:37:19;;;;;;;17.42;3.42;;;;;;;;;;5101459;27;20051;-64
2023/12/27 05:39:45;;;;;;;22.20;4.30;;;;;;;;;;5122491;27;20264;-64
2023/12/27 05:42:15;;;;;;;14.75;3.53;;;;;;;;;;5121719;27;20043;-64
2023/12/27 05:44:41;;;;;;;19.52;4.90;;;;;;;;;;5121463;27;20079;-64
2023/12/27 05:47:08;;;;;;;18.17;4.45;;;;;;;;;;5120270;27;20036;-64
2023/12/27 05:49:34;;;;;;;17.55;4.80;;;;;;;;;;5119159;27;20188;-64
2023/12/27 05:52:01;;;;;;;17.88;4.45;;;;;;;;;;5099719;27;20076;-64
2023/12/27 05:54:27;;;;;;;22.38;5.07;;;;;;;;;;5120908;27;20875;-64
2023/12/27 05:56:53;;;;;;;19.42;4.60;;;;;;;;;;5102264;27;20054;-64
2023/12/27 05:59:20;;;;;;;20.27;4.25;;;;;;;;;;5100607;27;20051;-64
2023/12/27 06:01:47;;;;;;;22.13;4.40;;;;;;;;;;5101270;27;20124;-64
2023/12/27 06:04:14;;;;;;;20.70;4.53;;;;;;;;;;5103983;27;20074;-64
2023/12/27 06:06:41;;;;;;;25.10;4.70;;;;;;;;;;5104586;27;20046;-64
2023/12/27 06:09:07;;;;;;;17.95;5.63;;;;;;;;;;5100253;27;20043;-64
2023/12/27 06:11:33;;;;;;;26.13;5.25;;;;;;;;;;5120685;27;20035;-64
2023/12/27 06:13:59;;;;;;;16.80;4.50;;;;;;;;;;5124557;27;20085;-64
2023/12/27 06:16:25;;;;;;;18.88;4.40;;;;;;;;;;5106476;27;20712;-64
2023/12/27 06:18:54;;;;;;;19.00;4.72;;;;;;;;;;5118995;27;20051;-64
2023/12/27 06:21:20;;;;;;;17.92;4.60;;;;;;;;;;5101458;27;20054;-64
2023/12/27 06:23:47;;;;;;;16.88;4.93;;;;;;;;;;5100670;27;20043;-64
2023/12/27 06:26:13;;;;;;;26.02;6.18;;;;;;;;;;5119601;27;20043;-64
2023/12/27 06:28:41;;;;;;;23.67;4.80;;;;;;;;;;5098253;27;20176;-65
2023/12/27 06:31:08;;;;;;;23.27;4.63;;;;;;;;;;5100928;27;20074;-64
2023/12/27 06:33:34;;;;;;;14.63;4.05;;;;;;;;;;5119189;27;20046;-64
2023/12/27 06:36:01;;;;;;;13.70;3.85;;;;;;;;;;5122342;27;20062;-64
2023/12/27 06:38:28;;;;;;;21.02;5.05;;;;;;;;;;5099821;27;20043;-64
2023/12/27 06:40:56;;;;;;;18.23;4.38;;;;;;;;;;5100415;27;20043;-64
2023/12/27 06:43:22;;;;;;;15.90;4.40;;;;;;;;;;5121376;27;20043;-65
2023/12/27 06:45:49;;;;;;;18.33;4.20;;;;;;;;;;5102531;27;20450;-64
2023/12/27 06:48:15;;;;;;;15.85;3.63;;;;;;;;;;5101087;27;20118;-64
2023/12/27 06:50:42;;;;;;;22.75;3.92;;;;;;;;;;5120083;27;20047;-65
2023/12/27 06:53:09;;;;;;;17.88;4.40;;;;;;;;;;5099405;27;20891;-64
2023/12/27 06:55:35;;;;;;;12.90;3.03;;;;;;;;;;5099758;27;20047;-64
2023/12/27 06:58:01;;;;;;;17.73;4.10;;;;;;;;;;5101773;27;22005;-64
2023/12/27 07:00:29;;;;;;;17.88;2.78;;;;;;;;;;5101371;27;20070;-64
2023/12/27 07:02:55;;;;;;;18.48;4.20;;;;;;;;;;5079162;27;20053;-64
2023/12/27 07:05:21;;;;;;;14.27;3.88;;;;;;;;;;5118575;27;20365;-64
2023/12/27 07:07:47;;;;;;;19.88;3.40;;;;;;;;;;5098095;27;20039;-64
2023/12/27 07:10:14;;;;;;;19.30;3.45;;;;;;;;;;5101687;27;20043;-64
2023/12/27 07:12:40;;;;;;;21.60;3.95;;;;;;;;;;5097792;27;20039;-65
2023/12/27 07:15:07;;;;;;;11.35;2.75;;;;;;;;;;5082098;27;20513;-64
2023/12/27 07:17:34;;;;;;;17.40;4.88;;;;;;;;;;5101498;28;20056;-64
2023/12/27 07:20:00;;;;;;;17.52;3.05;;;;;;;;;;5101297;27;20123;-64
2023/12/27 07:22:26;;;;;;;18.55;3.95;;;;;;;;;;5117741;27;20039;-64
2023/12/27 07:24:53;;;;;;;12.25;3.28;;;;;;;;;;5101486;27;20047;-64
2023/12/27 07:27:19;;;;;;;17.35;3.60;;;;;;;;;;5099305;27;20130;-64
2023/12/27 07:29:45;;;;;;;13.70;3.45;;;;;;;;;;5118182;27;20154;-64
2023/12/27 07:32:11;;;;;;;14.68;2.83;;;;;;;;;;5119068;27;20039;-64
2023/12/27 07:34:37;;;;;;;13.82;3.65;;;;;;;;;;5102196;27;20124;-65
2023/12/27 07:37:04;;;;;;;14.70;2.85;;;;;;;;;;5102600;28;20069;-65
2023/12/27 07:39:32;;;;;;;12.05;2.88;;;;;;;;;;5117498;27;20047;-64
2023/12/27 07:41:59;;;;;;;13.90;3.10;;;;;;;;;;5085638;27;20039;-65
2023/12/27 07:44:26;;;;;;;16.85;3.90;;;;;;;;;;5120367;27;20463;-64
2023/12/27 07:46:53;;;;;;;18.33;2.97;;;;;;;;;;5118638;28;20154;-64
2023/12/27 07:49:19;;;;;;;15.73;3.15;;;;;;;;;;5100639;28;20115;-64
2023/12/27 07:51:45;;;;;;;13.52;3.30;;;;;;;;;;5098984;28;20157;-64
2023/12/27 07:54:11;;;;;;;12.10;3.10;;;;;;;;;;5099466;28;20039;-64
2023/12/27 07:56:38;;;;;;;19.77;3.25;;;;;;;;;;5102273;28;20048;-64
2023/12/27 07:59:04;;;;;;;18.13;3.10;;;;;;;;;;5102491;28;20174;-64
2023/12/27 08:01:31;;;;;;;14.40;2.55;;;;;;;;;;5107263;28;20055;-64
2023/12/27 08:03:59;;;;;;;13.40;3.47;;;;;;;;;;5114512;28;20489;-64
2023/12/27 08:06:26;;;;;;;13.30;2.85;;;;;;;;;;5104339;28;20407;-64
2023/12/27 08:08:53;;;;;;;14.38;3.00;;;;;;;;;;5117995;28;20051;-64
2023/12/27 08:11:20;;;;;;;18.30;4.88;;;;;;;;;;5101640;28;20430;-64
2023/12/27 08:13:46;;;;;;;15.68;3.60;;;;;;;;;;5122056;28;20118;-64
2023/12/27 08:16:12;;;;;;;19.08;3.38;;;;;;;;;;5104864;28;20074;-64
2023/12/27 08:18:39;;;;;;;15.85;2.80;;;;;;;;;;5103725;28;20040;-65
2023/12/27 08:21:05;;;;;;;19.33;3.20;;;;;;;;;;5103975;28;20051;-65
2023/12/27 08:23:31;;;;;;;21.85;3.25;;;;;;;;;;5104182;28;20050;-64
2023/12/27 08:25:58;;;;;;;15.98;6.18;;;;;;;;;;5102407;28;20044;-64
2023/12/27 08:28:24;;;;;;;14.63;3.20;;;;;;;;;;5116614;28;20031;-64
2023/12/27 08:30:51;;;;;;;18.95;3.78;;;;;;;;;;5114645;28;20151;-71
2023/12/27 08:33:17;;;;;;;14.27;2.28;;;;;;;;;;5082890;27;20039;-64
2023/12/27 08:35:43;;;;;;;22.73;6.03;;;;;;;;;;5126555;27;20043;-64
2023/12/27 08:38:09;;;;;;;19.40;5.10;;;;;;;;;;5102766;27;20139;-64
2023/12/27 08:40:35;;;;;;;16.85;3.33;;;;;;;;;;5118655;27;20071;-64
2023/12/27 08:43:02;;;;;;;18.88;3.08;;;;;;;;;;5120547;27;20049;-64
2023/12/27 08:45:28;;;;;;;15.73;3.28;;;;;;;;;;5120364;27;20031;-64
2023/12/27 08:47:54;;;;;;;14.77;3.78;;;;;;;;;;5103424;27;20155;-64
2023/12/27 08:50:21;;;;;;;11.07;3.17;;;;;;;;;;5120062;27;20031;-64
2023/12/27 08:52:47;;;;;;;15.57;3.17;;;;;;;;;;5122555;27;20055;-64
2023/12/27 08:55:14;;;;;;;17.15;2.80;;;;;;;;;;5126836;27;20499;-64
2023/12/27 08:57:40;;;;;;;17.80;3.00;;;;;;;;;;5104995;27;20401;-64
2023/12/27 09:00:10;;;;;;;14.88;3.20;;;;;;;;;;5102664;28;20047;-64
2023/12/27 09:02:37;;;;;;;18.90;3.47;;;;;;;;;;5114284;27;20043;-73
2023/12/27 09:05:04;;;;;;;12.70;3.22;;;;;;;;;;5112537;27;20394;-64
2023/12/27 09:07:31;;;;;;;18.08;2.75;;;;;;;;;;5103717;27;20492;-66
2023/12/27 09:09:57;;;;;;;20.63;4.00;;;;;;;;;;5104995;27;20127;-64
2023/12/27 09:12:24;;;;;;;16.90;4.65;;;;;;;;;;5109786;27;20084;-64
2023/12/27 09:14:50;;;;;;;23.02;3.28;;;;;;;;;;5123863;27;20050;-64
2023/12/27 09:17:16;;;;;;;17.70;6.07;;;;;;;;;;5105084;27;20069;-64
2023/12/27 09:19:43;;;;;;;23.55;5.95;;;;;;;;;;5102074;28;20037;-63
2023/12/27 09:22:09;;;;;;;26.70;4.50;;;;;;;;;;5118348;27;20130;-63
2023/12/27 09:24:35;;;;;;;22.02;3.63;;;;;;;;;;5110308;27;20036;-65
2023/12/27 09:27:01;;;;;;;22.05;6.20;;;;;;;;;;5120128;27;20067;-64
2023/12/27 09:29:28;;;;;;;26.20;8.13;;;;;;;;;;5109264;27;20065;-68
2023/12/27 09:31:54;;;;;;;15.82;6.78;;;;;;;;;;5102689;27;20043;-67
2023/12/27 09:34:20;;;;;;;14.20;4.53;;;;;;;;;;5087242;27;20075;-67
2023/12/27 09:36:46;;;;;;;20.00;3.42;;;;;;;;;;5123907;27;20035;-67
2023/12/27 09:39:13;;;;;;;21.27;4.93;;;;;;;;;;5123449;27;20493;-67
2023/12/27 09:41:40;;;;;;;19.88;4.57;;;;;;;;;;5105988;27;20035;-67
2023/12/27 09:44:07;;;;;;;17.55;3.88;;;;;;;;;;5108934;27;20522;-67
2023/12/27 09:46:35;;;;;;;18.35;5.22;;;;;;;;;;5127108;27;20039;-67
2023/12/27 09:49:01;;;;;;;16.08;4.68;;;;;;;;;;5106922;27;20035;-64
2023/12/27 09:51:28;;;;;;;18.52;4.45;;;;;;;;;;5105353;27;20512;-64
2023/12/27 09:53:55;;;;;;;20.50;4.95;;;;;;;;;;5101513;27;20054;-64
2023/12/27 09:56:23;;;;;;;23.77;4.72;;;;;;;;;;5124532;27;20077;-65
2023/12/27 09:58:50;;;;;;;11.68;4.53;;;;;;;;;;5126986;27;20406;-64
2023/12/27 10:01:16;;;;;;;15.90;5.78;;;;;;;;;;5117089;27;20096;-70
2023/12/27 10:03:48;;;;;;;12.52;5.28;;;;;;;;;;5104134;27;20035;-63
2023/12/27 10:06:18;;;;;;;23.20;5.85;;;;;;;;;;5120559;27;20118;-63
2023/12/27 10:08:45;;;;;;;20.58;5.47;;;;;;;;;;5118859;27;20059;-62
2023/12/27 10:11:12;;;;;;;19.67;5.50;;;;;;;;;;5120823;27;20407;-62
2023/12/27 10:13:39;;;;;;;24.20;5.85;;;;;;;;;;5097832;27;20047;-63
2023/12/27 10:16:05;;;;;;;16.33;5.53;;;;;;;;;;5101099;27;20119;-62
2023/12/27 10:18:31;;;;;;;16.67;6.43;;;;;;;;;;5107089;27;20048;-62
2023/12/27 10:20:58;;;;;;;21.27;6.47;;;;;;;;;;5095362;28;20499;-65
2023/12/27 10:23:24;;;;;;;26.08;6.20;;;;;;;;;;5118070;27;20055;-63
2023/12/27 10:25:52;;;;;;;23.67;7.25;;;;;;;;;;5116967;27;20463;-63
2023/12/27 10:28:27;;;;;;;21.35;8.02;;;;;;;;;;5118408;27;20048;-63
2023/12/27 10:30:53;;;;;;;15.18;7.00;;;;;;;;;;5085857;28;20392;-62
2023/12/27 10:33:20;;;;;;;20.30;7.18;;;;;;;;;;5087939;28;20043;-62
2023/12/27 10:35:47;;;;;;;17.88;6.32;;;;;;;;;;5086552;28;20039;-62
2023/12/27 10:38:14;;;;;;;21.02;6.53;;;;;;;;;;5087095;28;20384;-63
2023/12/27 10:40:40;;;;;;;17.92;6.10;;;;;;;;;;5105448;28;20051;-62
2023/12/27 10:43:07;;;;;;;21.95;7.35;;;;;;;;;;5089402;28;20040;-62
2023/12/27 10:45:34;;;;;;;24.48;7.50;;;;;;;;;;5088009;28;20074;-63
2023/12/27 10:48:00;;;;;;;19.73;6.25;;;;;;;;;;5089749;28;20043;-62
2023/12/27 10:50:27;;;;;;;24.63;7.70;;;;;;;;;;5085979;28;20475;-63
2023/12/27 10:53:03;;;;;;;25.85;7.68;;;;;;;;;;5106823;28;20043;-62
2023/12/27 10:55:29;;;;;;;15.50;8.50;;;;;;;;;;5073473;28;20066;-62
2023/12/27 10:57:57;;;;;;;21.70;8.50;;;;;;;;;;5099318;27;20036;-62
2023/12/27 11:00:23;;;;;;;23.60;9.05;;;;;;;;;;5088915;28;20432;-63
2023/12/27 11:02:51;;;;;;;28.65;8.65;;;;;;;;;;5088017;28;20486;-62
2023/12/27 11:05:18;;;;;;;21.52;8.77;;;;;;;;;;5103714;28;20434;-63
2023/12/27 11:07:46;;;;;;;27.60;10.02;;;;;;;;;;5089948;28;20039;-64
2023/12/27 11:10:15;;;;;;;25.42;8.73;;;;;;;;;;5099894;28;20360;-64
2023/12/27 11:12:45;;;;;;;25.25;10.27;;;;;;;;;;5086148;28;20066;-64
2023/12/27 11:15:11;;;;;;;24.67;10.00;;;;;;;;;;5099282;28;20050;-64
2023/12/27 11:17:37;;;;;;;29.67;10.13;;;;;;;;;;5105415;28;20726;-64
2023/12/27 11:20:05;;;;;;;20.63;10.05;;;;;;;;;;5107150;28;20047;-63
2023/12/27 11:22:32;;;;;;;32.00;12.18;;;;;;;;;;5105207;28;20043;-63
2023/12/27 11:24:59;;;;;;;31.02;11.27;;;;;;;;;;5084716;28;20083;-63
2023/12/27 11:27:25;;;;;;;28.67;10.77;;;;;;;;;;5087088;28;20051;-63
2023/12/27 11:29:51;;;;;;;30.33;12.02;;;;;;;;;;5088810;28;20400;-69
2023/12/27 11:32:18;;;;;;;25.48;10.98;;;;;;;;;;5093904;28;20039;-63
2023/12/27 11:34:44;;;;;;;31.75;12.93;;;;;;;;;;5097970;28;20445;-64
2023/12/27 11:37:14;;;;;;;36.30;13.48;;;;;;;;;;5105254;28;20035;-62
2023/12/27 11:39:40;;;;;;;35.60;12.65;;;;;;;;;;5099464;28;20070;-62
2023/12/27 11:42:06;;;;;;;35.72;14.43;;;;;;;;;;5094692;28;20075;-63
2023/12/27 11:44:40;;;;;;;34.38;13.40;;;;;;;;;;5097567;28;20044;-62
2023/12/27 11:47:08;;;;;;;40.88;15.43;;;;;;;;;;5091608;28;20399;-62
2023/12/27 11:49:34;;;;;;;38.88;14.88;;;;;;;;;;5099453;28;20043;-62
2023/12/27 11:52:00;;;;;;;37.30;17.40;;;;;;;;;;5095753;28;20047;-63
2023/12/27 11:54:26;;;;;;;31.73;14.23;;;;;;;;;;5101294;28;20089;-63
2023/12/27 11:56:53;;;;;;;37.20;14.43;;;;;;;;;;5091535;28;20043;-62
2023/12/27 11:59:21;;;;;;;38.80;15.82;;;;;;;;;;5087334;28;20101;-62
2023/12/27 12:01:49;;;;;;;32.17;15.40;;;;;;;;;;5097978;28;20040;-63
2023/12/27 12:04:15;;;;;;;32.83;16.02;;;;;;;;;;5098930;28;20049;-62
2023/12/27 12:06:54;;;;;;;32.10;15.50;;;;;;;;;;5092098;28;20071;-62
2023/12/27 12:09:37;;;;;;;35.47;16.25;;;;;;;;;;5095053;28;21095;-62
2023/12/27 12:12:17;;;;;;;43.90;16.50;;;;;;;;;;5104618;28;20040;-63
2023/12/27 12:14:44;;;;;;;30.30;16.48;;;;;;;;;;5108024;28;20135;-62
2023/12/27 12:17:10;;;;;;;39.45;16.85;;;;;;;;;;5094281;28;20043;-62
2023/12/27 12:19:37;;;;;;;36.90;17.23;;;;;;;;;;5094501;28;20044;-62
2023/12/27 12:22:03;;;;;;;34.00;17.33;;;;;;;;;;5092859;28;20044;-63
2023/12/27 12:24:30;;;;;;;35.92;17.95;;;;;;;;;;5104405;28;20051;-68
2023/12/27 12:26:57;;;;;;;32.30;17.23;;;;;;;;;;5112796;27;20108;-68
2023/12/27 12:29:24;;;;;;;38.53;17.83;;;;;;;;;;5106908;27;20092;-63
2023/12/27 12:31:51;;;;;;;31.67;17.67;;;;;;;;;;5107074;27;20424;-63
2023/12/27 12:34:17;;;;;;;34.50;18.40;;;;;;;;;;5119979;27;20047;-62
2023/12/27 12:36:43;;;;;;;40.70;19.60;;;;;;;;;;5103121;27;20079;-63
2023/12/27 12:39:13;;;;;;;33.45;18.35;;;;;;;;;;5104174;27;20050;-62
2023/12/27 12:41:40;;;;;;;33.58;18.17;;;;;;;;;;5101110;27;20769;-62
2023/12/27 12:44:09;;;;;;;38.17;19.65;;;;;;;;;;5104872;28;20044;-62
2023/12/27 12:46:36;;;;;;;36.95;20.90;;;;;;;;;;5108447;27;20375;-62
2023/12/27 12:49:03;;;;;;;40.67;21.85;;;;;;;;;;5097952;27;20093;-62
2023/12/27 12:51:29;;;;;;;36.28;20.17;;;;;;;;;;5099654;27;20428;-62
2023/12/27 12:53:56;;;;;;;35.03;21.20;;;;;;;;;;5124237;27;20056;-63
2023/12/27 12:56:22;;;;;;;37.67;22.45;;;;;;;;;;5128767;27;20051;-63
2023/12/27 12:58:49;;;;;;;42.28;22.58;;;;;;;;;;5126267;27;20027;-62
2023/12/27 13:01:15;;;;;;;35.30;23.08;;;;;;;;;;5126812;27;20043;-63
2023/12/27 13:03:43;;;;;;;41.53;23.30;;;;;;;;;;5117625;27;20380;-63
2023/12/27 13:06:13;;;;;;;40.42;23.50;;;;;;;;;;5107440;27;20089;-63
2023/12/27 13:08:40;;;;;;;43.95;23.50;;;;;;;;;;5121411;27;20047;-62
2023/12/27 13:11:08;;;;;;;48.65;25.38;;;;;;;;;;5126264;27;20085;-63
2023/12/27 13:13:34;;;;;;;42.72;23.52;;;;;;;;;;5125518;27;20035;-62
2023/12/27 13:16:00;;;;;;;46.72;27.73;;;;;;;;;;5106494;27;20249;-63
2023/12/27 13:18:26;;;;;;;47.50;25.30;;;;;;;;;;5121154;27;20043;-63
2023/12/27 13:20:53;;;;;;;43.85;25.75;;;;;;;;;;5086719;27;20069;-63
2023/12/27 13:23:19;;;;;;;53.28;27.02;;;;;;;;;;5125884;27;20118;-63
2023/12/27 13:25:46;;;;;;;51.40;27.92;;;;;;;;;;5121988;27;20502;-63
2023/12/27 13:28:13;;;;;;;49.03;27.40;;;;;;;;;;5123422;27;20056;-64
2023/12/27 13:30:39;;;;;;;54.33;29.02;;;;;;;;;;5124567;27;20574;-62
2023/12/27 13:33:06;;;;;;;54.08;28.85;;;;;;;;;;5123709;27;20104;-63
2023/12/27 13:35:32;;;;;;;51.15;28.17;;;;;;;;;;5124139;27;20501;-62
2023/12/27 13:37:59;;;;;;;60.38;30.23;;;;;;;;;;5127806;27;20043;-62
2023/12/27 13:40:25;;;;;;;58.38;29.92;;;;;;;;;;5124258;27;20682;-62
2023/12/27 13:42:51;;;;;;;59.38;30.38;;;;;;;;;;5084950;27;20039;-62
2023/12/27 13:45:18;;;;;;;55.25;28.42;;;;;;;;;;5105663;27;20044;-62
2023/12/27 13:47:44;;;;;;;55.80;29.55;;;;;;;;;;5105400;27;20042;-62
2023/12/27 13:50:10;;;;;;;56.38;29.13;;;;;;;;;;5102000;27;20063;-62
2023/12/27 13:52:36;;;;;;;62.13;32.00;;;;;;;;;;5105055;28;20035;-62
2023/12/27 13:55:03;;;;;;;64.53;33.75;;;;;;;;;;5100905;27;20169;-62
2023/12/27 13:57:29;;;;;;;56.83;31.33;;;;;;;;;;5104375;27;20044;-62
2023/12/27 13:59:55;;;;;;;58.17;30.27;;;;;;;;;;5116872;27;20503;-63
2023/12/27 14:02:21;;;;;;;67.07;32.28;;;;;;;;;;5102564;28;20043;-62
2023/12/27 14:04:47;;;;;;;61.35;32.28;;;;;;;;;;5100617;27;20047;-66
2023/12/27 14:07:13;;;;;;;55.28;31.05;;;;;;;;;;5121005;27;20126;-63
2023/12/27 14:09:40;;;;;;;65.68;32.45;;;;;;;;;;5102780;27;20386;-63
2023/12/27 14:12:07;;;;;;;66.05;33.80;;;;;;;;;;5118204;27;20158;-63
2023/12/27 14:14:33;;;;;;;72.43;35.03;;;;;;;;;;5119889;27;20047;-64
2023/12/27 14:16:59;;;;;;;68.65;32.70;;;;;;;;;;5104438;27;20062;-62
2023/12/27 14:19:25;;;;;;;60.58;32.33;;;;;;;;;;5125156;27;20032;-62
2023/12/27 14:21:51;;;;;;;66.97;33.58;;;;;;;;;;5122669;27;20054;-62
2023/12/27 14:24:17;;;;;;;63.47;31.20;;;;;;;;;;5123137;27;20092;-63